Time;durP1;ratioP1;P1;durP2;ratioP2;P2;SDS_P1;SDS_P2;PMS_P1;PMS_P2;Temp;Humidity;BMP_temperature;BMP_pressure;BME280_temperature;BME280_humidity;BME280_pressure;Samples;Min_cycle;Max_cycle;Signal;HPM_P1;HPM_P2
2023/03/29 00:02:28;;;;;;;1.13;0.90;;;;;;;20.30;33.28;101684.06;5038208;28;20119;-68
2023/03/29 00:04:55;;;;;;;0.70;0.70;;;;;;;20.31;33.19;101688.38;5035958;28;20044;-69
2023/03/29 00:07:22;;;;;;;0.82;0.82;;;;;;;20.30;33.56;101686.72;5035893;28;20040;-68
2023/03/29 00:09:48;;;;;;;1.90;1.35;;;;;;;20.31;33.42;101677.78;5038719;28;20077;-69
2023/03/29 00:12:14;;;;;;;2.30;1.00;;;;;;;20.30;33.50;101678.78;5035384;28;20051;-68
2023/03/29 00:14:39;;;;;;;1.52;0.93;;;;;;;20.29;33.42;101677.94;5036973;28;20048;-68
2023/03/29 00:17:05;;;;;;;1.40;0.90;;;;;;;20.31;33.23;101672.50;5035267;28;20037;-67
2023/03/29 00:19:34;;;;;;;1.17;0.80;;;;;;;20.28;33.33;101660.38;5041416;28;20051;-68
2023/03/29 00:22:01;;;;;;;3.13;1.17;;;;;;;20.29;33.49;101659.44;5041279;28;20514;-68
2023/03/29 00:24:26;;;;;;;0.90;0.90;;;;;;;20.29;33.55;101663.88;5039612;28;20124;-67
2023/03/29 00:26:52;;;;;;;1.17;0.90;;;;;;;20.28;33.45;101667.50;5036530;28;20041;-68
2023/03/29 00:29:17;;;;;;;2.22;1.23;;;;;;;20.18;33.69;101665.84;5039303;28;20047;-68
2023/03/29 00:31:44;;;;;;;2.38;1.20;;;;;;;20.19;33.56;101661.38;5036193;28;20036;-68
2023/03/29 00:34:10;;;;;;;2.35;1.30;;;;;;;20.15;33.61;101660.88;5036593;28;20033;-68
2023/03/29 00:36:35;;;;;;;1.05;0.85;;;;;;;20.14;33.65;101659.22;5042695;28;20052;-68
2023/03/29 00:39:01;;;;;;;1.05;0.95;;;;;;;20.15;33.57;101652.13;5034943;28;20060;-68
2023/03/29 00:41:27;;;;;;;1.08;0.70;;;;;;;20.01;33.86;101643.00;5036615;28;20042;-68
2023/03/29 00:43:56;;;;;;;1.83;1.25;;;;;;;19.97;33.98;101651.41;5037692;28;20049;-69
2023/03/29 00:46:23;;;;;;;1.67;0.95;;;;;;;20.01;33.71;101636.88;5044394;28;20056;-69
2023/03/29 00:48:52;;;;;;;1.88;1.20;;;;;;;20.04;33.85;101636.53;5067342;28;20033;-69
2023/03/29 00:51:23;;;;;;;1.30;1.20;;;;;;;19.95;33.97;101633.06;5035167;28;20439;-68
2023/03/29 00:53:54;;;;;;;0.98;0.93;;;;;;;19.95;33.97;101616.38;5044394;28;20037;-68
2023/03/29 00:56:37;;;;;;;2.05;0.95;;;;;;;19.84;34.04;101615.69;5043659;28;20105;-67
2023/03/29 00:59:16;;;;;;;1.30;1.08;;;;;;;19.93;34.06;101613.91;5042779;28;20040;-68
2023/03/29 01:01:53;;;;;;;1.50;1.10;;;;;;;19.92;34.03;101617.50;5032672;28;20061;-68
2023/03/29 01:04:32;;;;;;;1.08;0.98;;;;;;;19.85;34.06;101612.03;5031836;28;20136;-68
2023/03/29 01:07:01;;;;;;;1.08;0.80;;;;;;;19.83;34.18;101626.41;5052662;28;20032;-69
2023/03/29 01:09:29;;;;;;;1.30;1.00;;;;;;;19.76;34.26;101620.94;5053416;28;20090;-68
2023/03/29 01:11:59;;;;;;;1.25;1.15;;;;;;;19.77;34.11;101614.69;5033424;28;20044;-69
2023/03/29 01:14:29;;;;;;;1.20;1.10;;;;;;;19.81;34.18;101608.06;5042369;28;20037;-68
2023/03/29 01:16:55;;;;;;;1.90;1.13;;;;;;;19.80;34.19;101601.13;5067980;28;20047;-68
2023/03/29 01:19:27;;;;;;;0.80;0.80;;;;;;;19.74;34.20;101598.28;5038775;28;20557;-68
2023/03/29 01:22:39;;;;;;;1.48;1.13;;;;;;;19.82;34.21;101593.03;5036020;28;20033;-68
2023/03/29 01:25:05;;;;;;;1.20;1.10;;;;;;;19.82;34.10;101598.34;5043394;28;20787;-67
2023/03/29 01:27:48;;;;;;;1.08;0.77;;;;;;;19.85;34.11;101593.53;5035104;28;20179;-68
2023/03/29 01:30:21;;;;;;;1.20;0.93;;;;;;;19.78;34.20;101586.44;5033152;28;20032;-68
2023/03/29 01:32:58;;;;;;;1.00;0.90;;;;;;;19.75;34.23;101584.09;5036191;28;20032;-68
2023/03/29 01:35:44;;;;;;;2.63;1.00;;;;;;;19.76;34.15;101572.56;5030970;28;20140;-67
2023/03/29 01:38:23;;;;;;;1.25;1.05;;;;;;;19.83;34.07;101584.13;5039574;28;20028;-67
2023/03/29 01:40:49;;;;;;;0.98;0.82;;;;;;;19.94;34.05;101581.19;5034770;28;20113;-68
2023/03/29 01:43:30;;;;;;;1.42;1.10;;;;;;;19.85;34.08;101579.50;5043051;28;20609;-68
2023/03/29 01:46:03;;;;;;;1.38;0.90;;;;;;;19.82;34.12;101582.47;5036632;28;20375;-68
2023/03/29 01:48:44;;;;;;;0.68;0.68;;;;;;;19.85;34.14;101577.69;5029779;28;20029;-68
2023/03/29 01:51:27;;;;;;;0.90;0.77;;;;;;;19.73;34.39;101575.50;5032563;28;20056;-69
2023/03/29 01:53:59;;;;;;;1.83;1.40;;;;;;;19.62;34.53;101566.06;5038174;28;20036;-68
2023/03/29 01:56:28;;;;;;;1.10;1.00;;;;;;;19.77;34.31;101571.56;5043199;28;20375;-68
2023/03/29 01:59:01;;;;;;;3.08;0.90;;;;;;;19.77;34.34;101567.09;5068144;28;20029;-67
2023/03/29 02:01:33;;;;;;;1.35;1.10;;;;;;;19.68;34.33;101541.63;5043073;28;20947;-69
2023/03/29 02:04:03;;;;;;;0.80;0.80;;;;;;;19.88;34.14;101553.56;5039971;28;20122;-68
2023/03/29 02:06:32;;;;;;;1.50;1.08;;;;;;;19.81;34.24;101542.00;5039457;28;20056;-67
2023/03/29 02:08:59;;;;;;;1.45;1.20;;;;;;;19.74;34.42;101548.06;5037851;28;20132;-67
2023/03/29 02:11:28;;;;;;;1.20;0.90;;;;;;;19.73;34.44;101539.31;5037052;28;20032;-68
2023/03/29 02:13:55;;;;;;;1.42;0.98;;;;;;;19.66;34.27;101533.03;5036822;28;20056;-67
2023/03/29 02:16:21;;;;;;;0.80;0.80;;;;;;;19.69;34.41;101531.88;5037561;28;20028;-68
2023/03/29 02:18:49;;;;;;;2.13;1.08;;;;;;;19.81;34.10;101525.31;5037818;28;20052;-68
2023/03/29 02:21:34;;;;;;;0.90;0.90;;;;;;;19.69;34.39;101522.16;5041947;28;20068;-68
2023/03/29 02:24:05;;;;;;;1.20;1.10;;;;;;;19.70;34.42;101520.31;5044164;28;20025;-68
2023/03/29 02:26:32;;;;;;;1.92;1.00;;;;;;;19.79;34.36;101520.19;5039220;28;20595;-68
2023/03/29 02:28:57;;;;;;;1.10;1.05;;;;;;;19.73;34.44;101520.81;5054794;28;20063;-68
2023/03/29 02:31:30;;;;;;;2.95;1.30;;;;;;;19.80;34.26;101524.50;5042767;28;20025;-68
2023/03/29 02:34:02;;;;;;;1.10;1.00;;;;;;;19.67;34.59;101507.44;5033909;28;20106;-67
2023/03/29 02:36:50;;;;;;;0.77;0.77;;;;;;;19.73;34.45;101515.53;5041348;28;20107;-68
2023/03/29 02:39:18;;;;;;;1.13;1.00;;;;;;;19.68;34.45;101515.22;5041723;28;20033;-68
2023/03/29 02:41:47;;;;;;;2.60;0.90;;;;;;;19.70;34.58;101505.31;5035714;28;20388;-68
2023/03/29 02:44:19;;;;;;;1.30;1.20;;;;;;;19.67;34.40;101507.44;5041051;28;20039;-67
2023/03/29 02:46:48;;;;;;;1.05;0.95;;;;;;;19.68;34.35;101502.00;5039074;28;20203;-67
2023/03/29 02:49:13;;;;;;;1.13;1.02;;;;;;;19.65;34.50;101501.50;5036682;28;20539;-68
2023/03/29 02:51:39;;;;;;;1.38;1.08;;;;;;;19.68;34.43;101487.97;5034881;28;20112;-69
2023/03/29 02:54:14;;;;;;;0.93;0.93;;;;;;;19.97;34.08;101501.56;5035775;28;20041;-68
2023/03/29 02:56:46;;;;;;;2.17;0.90;;;;;;;20.06;33.93;101497.91;5042067;28;20418;-69
2023/03/29 02:59:12;;;;;;;1.38;0.70;;;;;;;20.07;33.90;101488.16;5038565;28;20064;-69
2023/03/29 03:01:41;;;;;;;0.85;0.80;;;;;;;20.03;33.88;101487.66;5037674;28;20037;-70
2023/03/29 03:04:08;;;;;;;1.30;1.15;;;;;;;20.05;33.91;101485.69;5030232;28;20368;-68
2023/03/29 03:06:36;;;;;;;2.92;1.30;;;;;;;20.06;33.83;101483.88;5035089;28;20043;-68
2023/03/29 03:09:03;;;;;;;1.35;1.13;;;;;;;20.07;33.89;101475.75;5036937;28;20045;-68
2023/03/29 03:11:32;;;;;;;0.95;0.90;;;;;;;20.06;33.91;101473.28;5036187;28;20043;-68
2023/03/29 03:13:57;;;;;;;1.02;1.00;;;;;;;20.06;34.07;101468.81;5038796;28;20040;-67
2023/03/29 03:16:23;;;;;;;1.48;0.90;;;;;;;20.08;33.88;101469.47;5039855;28;20048;-67
2023/03/29 03:18:50;;;;;;;1.17;1.08;;;;;;;20.04;33.66;101468.16;5037031;28;20045;-67
2023/03/29 03:21:17;;;;;;;1.45;1.10;;;;;;;20.06;33.91;101474.13;5037704;28;20127;-68
2023/03/29 03:23:44;;;;;;;1.67;1.25;;;;;;;20.05;34.07;101458.41;5039990;28;20048;-67
2023/03/29 03:26:11;;;;;;;1.33;1.20;;;;;;;20.02;34.09;101462.22;5036832;28;20643;-68
2023/03/29 03:28:38;;;;;;;1.25;1.15;;;;;;;20.03;33.96;101455.13;5038192;28;20049;-68
2023/03/29 03:31:08;;;;;;;1.33;1.23;;;;;;;20.00;33.97;101448.34;5036622;28;20050;-68
2023/03/29 03:34:03;;;;;;;1.20;1.10;;;;;;;19.99;34.07;101454.63;5041696;28;20438;-68
2023/03/29 03:36:39;;;;;;;3.60;1.13;;;;;;;19.98;34.16;101452.97;5044908;28;20037;-68
2023/03/29 03:39:06;;;;;;;1.38;1.10;;;;;;;19.96;34.04;101451.50;5046889;28;20679;-68
2023/03/29 03:41:33;;;;;;;1.85;1.33;;;;;;;19.85;34.33;101444.72;5033305;28;20490;-68
2023/03/29 03:43:59;;;;;;;1.33;1.23;;;;;;;19.76;34.31;101430.69;5029581;28;20151;-68
2023/03/29 03:46:26;;;;;;;0.98;0.98;;;;;;;19.89;34.17;101446.84;5048604;28;20064;-68
2023/03/29 03:48:51;;;;;;;1.35;0.90;;;;;;;19.77;34.37;101450.84;5042680;28;20033;-68
2023/03/29 03:51:25;;;;;;;0.90;0.90;;;;;;;19.77;34.49;101429.69;5040243;28;20530;-67
2023/03/29 03:53:51;;;;;;;1.17;1.00;;;;;;;19.77;34.41;101439.44;5055827;28;20045;-68
2023/03/29 03:56:37;;;;;;;2.42;1.20;;;;;;;19.75;34.54;101441.38;5039866;28;20059;-68
2023/03/29 03:59:03;;;;;;;2.25;1.30;;;;;;;19.78;34.40;101433.97;5042104;28;20042;-69
2023/03/29 04:01:34;;;;;;;1.20;1.10;;;;;;;19.77;34.44;101439.44;5030943;28;20025;-69
2023/03/29 04:04:13;;;;;;;1.48;1.23;;;;;;;19.72;34.55;101439.06;5049338;28;20053;-69
2023/03/29 04:06:42;;;;;;;1.42;0.80;;;;;;;19.61;34.67;101434.97;5035119;28;20064;-69
2023/03/29 04:09:33;;;;;;;1.20;1.10;;;;;;;19.69;34.54;101437.59;5038664;28;20045;-69
2023/03/29 04:12:17;;;;;;;3.60;1.15;;;;;;;19.59;34.74;101435.13;5040804;28;20048;-68
2023/03/29 04:14:43;;;;;;;1.67;1.15;;;;;;;19.65;34.71;101425.72;5018494;28;20029;-68
2023/03/29 04:17:15;;;;;;;1.08;1.05;;;;;;;19.68;34.50;101428.00;5038812;28;20072;-69
2023/03/29 04:19:52;;;;;;;0.80;0.80;;;;;;;19.70;34.37;101430.50;5049007;28;20399;-69
2023/03/29 04:22:18;;;;;;;1.95;1.25;;;;;;;19.70;34.41;101426.03;5034518;28;20044;-70
2023/03/29 04:24:44;;;;;;;3.35;1.60;;;;;;;19.80;34.27;101421.44;5031943;28;20574;-67
2023/03/29 04:27:30;;;;;;;1.70;1.30;;;;;;;19.81;34.32;101411.69;5031774;28;20055;-69
2023/03/29 04:29:57;;;;;;;1.40;1.27;;;;;;;19.86;34.14;101409.34;5037631;28;20102;-68
2023/03/29 04:32:36;;;;;;;1.50;1.20;;;;;;;19.96;34.06;101409.19;5047804;28;20041;-68
2023/03/29 04:35:06;;;;;;;1.77;1.23;;;;;;;20.27;33.52;101394.25;5038295;28;20033;-68
2023/03/29 04:37:32;;;;;;;2.05;1.35;;;;;;;20.37;33.46;101392.25;5038703;28;20056;-68
2023/03/29 04:40:03;;;;;;;1.50;1.17;;;;;;;20.22;33.65;101384.19;5068168;28;20068;-67
2023/03/29 04:42:41;;;;;;;1.23;1.10;;;;;;;20.23;33.44;101392.94;5049167;28;20049;-67
2023/03/29 04:45:07;;;;;;;1.20;1.10;;;;;;;20.16;33.80;101397.28;5033682;28;20480;-68
2023/03/29 04:47:52;;;;;;;1.48;1.13;;;;;;;20.13;33.86;101397.63;5037859;28;20183;-67
2023/03/29 04:50:18;;;;;;;2.03;1.85;;;;;;;20.11;34.00;101394.31;5038375;28;20029;-68
2023/03/29 04:52:45;;;;;;;1.08;1.02;;;;;;;20.06;34.01;101397.44;5042692;28;20064;-69
2023/03/29 04:55:11;;;;;;;1.50;1.40;;;;;;;20.11;33.91;101399.59;5062383;28;20108;-67
2023/03/29 04:57:46;;;;;;;1.65;1.20;;;;;;;20.09;33.84;101399.75;5047730;28;21011;-67
2023/03/29 05:00:25;;;;;;;1.10;1.10;;;;;;;20.05;34.01;101398.44;5038812;28;20037;-68
2023/03/29 05:03:03;;;;;;;1.58;1.48;;;;;;;20.06;34.17;101401.91;5038624;28;20064;-67
2023/03/29 05:05:31;;;;;;;1.48;1.35;;;;;;;20.02;34.08;101403.25;5043582;28;20033;-68
2023/03/29 05:08:00;;;;;;;1.58;1.20;;;;;;;20.03;34.01;101397.78;5034516;28;20060;-68
2023/03/29 05:10:33;;;;;;;1.98;1.20;;;;;;;20.03;34.01;101394.31;5047511;28;20057;-68
2023/03/29 05:12:58;;;;;;;1.25;1.15;;;;;;;20.01;34.00;101391.00;5040458;28;20044;-68
2023/03/29 05:15:25;;;;;;;2.30;1.38;;;;;;;19.96;34.06;101383.59;5043851;28;20033;-68
2023/03/29 05:17:51;;;;;;;1.25;1.15;;;;;;;19.93;33.97;101391.84;5046062;28;20418;-68
2023/03/29 05:20:16;;;;;;;1.63;1.50;;;;;;;19.78;34.34;101393.50;5031565;28;20033;-68
2023/03/29 05:22:45;;;;;;;1.80;1.38;;;;;;;19.74;34.42;101386.88;5033897;28;20065;-68
2023/03/29 05:25:19;;;;;;;1.77;1.52;;;;;;;19.73;34.44;101372.03;5035684;28;20581;-69
2023/03/29 05:27:45;;;;;;;1.73;1.30;;;;;;;19.68;34.49;101390.19;5037000;28;20056;-68
2023/03/29 05:30:14;;;;;;;2.03;1.50;;;;;;;19.57;34.81;101392.19;5033891;28;20049;-68
2023/03/29 05:32:55;;;;;;;2.17;1.48;;;;;;;19.51;34.79;101387.50;5038230;28;20138;-68
2023/03/29 05:35:25;;;;;;;2.50;1.55;;;;;;;19.57;34.67;101392.19;5032448;28;20510;-68
2023/03/29 05:37:51;;;;;;;1.58;1.13;;;;;;;19.57;34.64;101408.03;5036557;28;20053;-70
2023/03/29 05:40:16;;;;;;;1.48;1.35;;;;;;;19.41;34.97;101402.72;5037082;28;20038;-68
2023/03/29 05:43:01;;;;;;;1.95;1.48;;;;;;;19.60;34.58;101401.59;5033410;28;20071;-70
2023/03/29 05:45:28;;;;;;;2.15;1.52;;;;;;;19.57;34.74;101399.28;5035631;28;20041;-68
2023/03/29 05:47:55;;;;;;;1.80;1.58;;;;;;;19.54;34.77;101394.31;5074045;28;20032;-70
2023/03/29 05:50:20;;;;;;;1.25;1.15;;;;;;;19.49;34.78;101388.66;5031019;28;20045;-69
2023/03/29 05:52:48;;;;;;;1.95;1.50;;;;;;;19.55;34.60;101391.50;5036647;28;20060;-68
2023/03/29 05:55:13;;;;;;;1.60;1.50;;;;;;;19.59;34.63;101397.31;5033283;28;20041;-69
2023/03/29 05:57:40;;;;;;;1.55;1.40;;;;;;;19.55;34.63;101398.59;5037437;28;20048;-67
2023/03/29 06:00:21;;;;;;;2.47;1.20;;;;;;;19.61;34.58;101404.06;5036749;28;20032;-68
2023/03/29 06:02:51;;;;;;;1.42;1.27;;;;;;;19.62;34.51;101396.97;5036393;28;20044;-68
2023/03/29 06:05:18;;;;;;;1.33;1.20;;;;;;;19.58;34.60;101407.06;5040036;28;20048;-68
2023/03/29 06:07:59;;;;;;;1.15;1.05;;;;;;;19.71;34.42;101395.97;5035242;28;20558;-68
2023/03/29 06:10:43;;;;;;;1.30;1.20;;;;;;;19.88;34.13;101396.81;5037613;28;20064;-68
2023/03/29 06:13:40;;;;;;;1.90;1.10;;;;;;;19.92;33.97;101401.56;5037650;28;20044;-70
2023/03/29 06:16:08;;;;;;;1.17;1.08;;;;;;;20.10;33.80;101398.75;5031716;28;20047;-70
2023/03/29 06:18:34;;;;;;;2.97;1.60;;;;;;;20.41;33.41;101398.88;5035833;28;20041;-68
2023/03/29 06:21:01;;;;;;;1.33;1.23;;;;;;;20.80;32.83;101390.16;5049191;28;20042;-68
2023/03/29 06:23:28;;;;;;;2.17;1.38;;;;;;;21.44;31.92;101390.81;5034318;28;20038;-68
2023/03/29 06:25:54;;;;;;;1.38;1.17;;;;;;;21.82;31.51;101389.00;5057056;28;20048;-69
2023/03/29 06:28:21;;;;;;;2.35;1.50;;;;;;;21.83;31.20;101392.47;5037329;28;20179;-69
2023/03/29 06:30:48;;;;;;;1.27;1.15;;;;;;;21.70;31.62;101399.22;5034899;28;20029;-68
2023/03/29 06:33:14;;;;;;;2.15;1.20;;;;;;;21.57;31.98;101395.53;5035040;28;20038;-69
2023/03/29 06:35:51;;;;;;;1.60;1.33;;;;;;;21.46;32.13;101398.59;5031137;28;20068;-68
2023/03/29 06:38:23;;;;;;;1.35;1.25;;;;;;;21.34;32.38;101406.09;5034915;28;20048;-68
2023/03/29 06:41:03;;;;;;;1.55;1.45;;;;;;;21.21;32.54;101403.19;5042719;28;20076;-68
2023/03/29 06:43:41;;;;;;;1.55;1.20;;;;;;;21.09;32.78;101400.94;5034058;28;20486;-69
2023/03/29 06:46:13;;;;;;;2.25;1.45;;;;;;;20.96;33.15;101405.13;5035041;28;20124;-68
2023/03/29 06:49:04;;;;;;;1.45;1.02;;;;;;;20.80;33.47;101406.03;5037883;28;20049;-69
2023/03/29 06:51:42;;;;;;;1.55;1.45;;;;;;;20.73;33.41;101405.06;5039571;28;20041;-69
2023/03/29 06:54:08;;;;;;;1.65;1.48;;;;;;;20.69;33.52;101403.78;5049578;28;20059;-69
2023/03/29 06:56:36;;;;;;;1.58;1.10;;;;;;;20.65;33.72;101405.94;5040781;28;20037;-68
2023/03/29 06:59:05;;;;;;;2.13;1.40;;;;;;;20.59;33.85;101406.59;5040642;28;20032;-69
2023/03/29 07:01:46;;;;;;;1.83;1.30;;;;;;;20.59;33.75;101409.25;5037099;28;20103;-70
2023/03/29 07:04:31;;;;;;;1.27;1.17;;;;;;;20.88;33.41;101413.13;5037246;28;20038;-68
2023/03/29 07:07:18;;;;;;;2.45;1.25;;;;;;;21.33;32.63;101410.56;5041733;28;20040;-68
2023/03/29 07:09:52;;;;;;;3.67;1.75;;;;;;;21.63;32.45;101403.59;5038326;28;20131;-68
2023/03/29 07:12:30;;;;;;;2.03;1.30;;;;;;;21.66;32.51;101411.19;5040754;28;20686;-68
2023/03/29 07:14:58;;;;;;;1.63;1.38;;;;;;;21.66;32.55;101413.00;5037823;28;20207;-68
2023/03/29 07:17:38;;;;;;;1.48;1.30;;;;;;;21.31;32.75;101375.50;5038216;28;20124;-69
2023/03/29 07:20:09;;;;;;;2.15;1.27;;;;;;;21.34;32.90;101411.41;5038327;28;20035;-67
2023/03/29 07:22:46;;;;;;;1.63;1.45;;;;;;;21.27;33.21;101405.16;5040304;28;20045;-68
2023/03/29 07:25:14;;;;;;;1.35;1.20;;;;;;;21.18;33.18;101398.22;5041549;28;20045;-67
2023/03/29 07:27:41;;;;;;;1.30;1.20;;;;;;;21.04;33.57;101400.63;5035517;28;20061;-68
2023/03/29 07:30:09;;;;;;;1.55;1.15;;;;;;;20.98;33.71;101408.44;5037229;28;20033;-69
2023/03/29 07:32:37;;;;;;;1.92;1.30;;;;;;;20.92;33.51;101409.13;5050135;28;20033;-68
2023/03/29 07:35:19;;;;;;;4.50;1.45;;;;;;;20.76;33.77;101402.91;5041683;28;20799;-67
2023/03/29 07:37:46;;;;;;;1.33;1.25;;;;;;;20.77;33.84;101425.72;5041283;28;20075;-69
2023/03/29 07:40:17;;;;;;;1.42;1.33;;;;;;;20.78;33.83;101421.25;5045152;28;20036;-68
2023/03/29 07:43:07;;;;;;;2.35;1.48;;;;;;;20.75;33.89;101429.53;5043084;28;20479;-68
2023/03/29 07:45:33;;;;;;;1.23;1.10;;;;;;;20.72;33.96;101429.91;5039437;28;20030;-68
2023/03/29 07:48:09;;;;;;;1.58;1.35;;;;;;;20.70;33.99;101426.59;5039118;28;20131;-68
2023/03/29 07:50:47;;;;;;;1.88;1.48;;;;;;;20.64;34.31;101427.25;5036109;28;20040;-69
2023/03/29 07:53:14;;;;;;;1.30;1.20;;;;;;;20.64;34.10;101428.09;5047015;28;20075;-69
2023/03/29 07:55:46;;;;;;;1.92;1.30;;;;;;;20.62;34.20;101419.50;5041407;28;20388;-69
2023/03/29 07:58:46;;;;;;;1.95;1.33;;;;;;;20.60;34.22;101416.19;5033850;28;20119;-69
2023/03/29 08:01:14;;;;;;;2.55;1.25;;;;;;;20.59;34.29;101422.47;5035749;28;20075;-68
2023/03/29 08:03:58;;;;;;;2.38;1.70;;;;;;;20.60;34.16;101418.84;5036574;28;21744;-68
2023/03/29 08:06:43;;;;;;;2.35;1.50;;;;;;;20.46;35.21;101411.59;5036973;28;20048;-68
2023/03/29 08:09:09;;;;;;;2.45;1.48;;;;;;;20.64;35.22;101421.97;5038881;28;20044;-69
2023/03/29 08:11:34;;;;;;;3.58;1.40;;;;;;;20.65;34.90;101424.47;5039451;28;20029;-69
2023/03/29 08:14:03;;;;;;;2.63;1.55;;;;;;;20.63;35.11;101428.25;5037500;28;20053;-70
2023/03/29 08:17:00;;;;;;;1.65;1.40;;;;;;;20.56;35.10;101428.13;5031747;28;20502;-69
2023/03/29 08:19:27;;;;;;;1.45;1.20;;;;;;;20.59;34.95;101429.59;5044671;28;20038;-69
2023/03/29 08:22:02;;;;;;;1.35;1.25;;;;;;;20.59;35.01;101441.00;5042262;28;20047;-70
2023/03/29 08:24:40;;;;;;;1.58;1.23;;;;;;;20.57;34.79;101436.88;5042634;28;20039;-69
2023/03/29 08:27:07;;;;;;;1.73;1.45;;;;;;;20.57;34.76;101439.53;5045347;28;20032;-70
2023/03/29 08:29:32;;;;;;;1.50;1.40;;;;;;;20.33;35.41;101425.34;5064921;28;21039;-71
2023/03/29 08:31:58;;;;;;;1.55;1.20;;;;;;;20.49;34.98;101425.34;5027832;28;20037;-71
2023/03/29 08:34:24;;;;;;;2.53;1.33;;;;;;;20.51;35.01;101415.41;5020040;28;20398;-71
2023/03/29 08:37:08;;;;;;;2.05;1.50;;;;;;;20.46;34.93;101408.94;5038478;28;20603;-70
2023/03/29 08:39:41;;;;;;;1.95;1.50;;;;;;;20.50;34.96;101413.75;5035585;28;20037;-71
2023/03/29 08:42:50;;;;;;;1.63;1.48;;;;;;;20.50;34.91;101412.94;5051451;28;20041;-71
2023/03/29 08:45:26;;;;;;;1.27;1.10;;;;;;;20.46;34.96;101408.94;5065057;28;20501;-71
2023/03/29 08:48:25;;;;;;;1.98;1.40;;;;;;;20.48;34.95;101399.88;5036578;28;20558;-69
2023/03/29 08:51:05;;;;;;;1.35;1.20;;;;;;;20.54;34.80;101394.91;5040136;28;20056;-71
2023/03/29 08:53:39;;;;;;;1.20;1.10;;;;;;;20.71;34.47;101412.38;5041638;28;20049;-72
2023/03/29 08:56:19;;;;;;;1.08;1.08;;;;;;;20.98;34.25;101411.91;5044445;28;20471;-71
2023/03/29 08:59:19;;;;;;;1.30;1.02;;;;;;;21.53;33.19;101405.63;5037964;28;20350;-70
2023/03/29 09:01:48;;;;;;;1.67;1.20;;;;;;;21.58;33.19;101408.59;5042905;28;20116;-70
2023/03/29 09:04:22;;;;;;;1.77;1.40;;;;;;;21.54;33.08;101407.28;5029714;28;20048;-71
2023/03/29 09:06:57;;;;;;;1.75;1.23;;;;;;;21.45;33.20;101391.63;5057035;28;20041;-70
2023/03/29 09:09:32;;;;;;;1.35;1.15;;;;;;;21.38;33.56;101381.75;5032818;28;20087;-72
2023/03/29 09:12:19;;;;;;;3.63;1.67;;;;;;;21.32;33.51;101389.56;5035949;28;20033;-71
2023/03/29 09:15:13;;;;;;;1.35;1.20;;;;;;;21.27;33.76;101394.56;5033469;28;20060;-71
2023/03/29 09:17:54;;;;;;;1.20;1.10;;;;;;;21.10;33.83;101373.44;5040480;28;20033;-70
2023/03/29 09:21:05;;;;;;;2.27;1.20;;;;;;;21.11;33.90;101384.88;5043121;28;20475;-71
2023/03/29 09:23:47;;;;;;;1.42;1.17;;;;;;;21.07;33.87;101381.75;5027124;28;20052;-72
2023/03/29 09:26:30;;;;;;;2.25;1.13;;;;;;;21.04;34.03;101374.16;5042967;28;20033;-70
2023/03/29 09:29:30;;;;;;;1.83;1.10;;;;;;;21.04;34.00;101358.28;5043505;28;20084;-70
2023/03/29 09:31:57;;;;;;;1.38;1.25;;;;;;;20.98;34.21;101352.81;5051227;28;20118;-70
2023/03/29 09:34:39;;;;;;;1.10;1.00;;;;;;;20.98;34.05;101361.59;5038875;28;20052;-70
2023/03/29 09:37:21;;;;;;;1.73;1.42;;;;;;;20.98;34.08;101358.94;5063056;28;20120;-71
2023/03/29 09:39:48;;;;;;;1.38;1.23;;;;;;;20.97;34.13;101351.19;5039685;28;20132;-71
2023/03/29 09:42:18;;;;;;;1.53;1.17;;;;;;;20.95;34.11;101354.00;5036976;28;20056;-70
2023/03/29 09:44:49;;;;;;;2.22;1.30;;;;;;;20.92;34.15;101354.34;5036529;28;20041;-71
2023/03/29 09:47:22;;;;;;;1.60;1.20;;;;;;;20.92;34.14;101351.72;5029404;28;20538;-70
2023/03/29 09:49:51;;;;;;;1.45;1.30;;;;;;;20.88;34.37;101362.84;5035859;28;20041;-72
2023/03/29 09:52:18;;;;;;;2.22;1.58;;;;;;;20.79;34.32;101348.78;5041515;28;20434;-71
2023/03/29 09:54:55;;;;;;;2.25;1.17;;;;;;;20.85;34.41;101369.31;5047107;28;20379;-72
2023/03/29 09:57:44;;;;;;;1.60;1.08;;;;;;;20.83;34.33;101375.78;5049216;28;20064;-73
2023/03/29 10:00:13;;;;;;;1.70;1.10;;;;;;;20.81;34.22;101362.69;5030279;28;20063;-72
2023/03/29 10:02:49;;;;;;;1.55;1.30;;;;;;;20.76;34.37;101359.72;5073522;28;20056;-71
2023/03/29 10:05:15;;;;;;;1.35;1.25;;;;;;;20.74;34.45;101364.38;5058300;28;20037;-72
2023/03/29 10:07:47;;;;;;;1.55;1.30;;;;;;;20.72;34.30;101356.63;5050693;28;20100;-71
2023/03/29 10:10:21;;;;;;;1.50;1.23;;;;;;;20.75;34.53;101358.09;5035727;28;20079;-72
2023/03/29 10:12:49;;;;;;;1.52;1.42;;;;;;;20.80;34.26;101367.16;5037409;28;20041;-72
2023/03/29 10:15:16;;;;;;;1.65;1.40;;;;;;;20.83;33.95;101366.00;5032577;28;20032;-72
2023/03/29 10:17:44;;;;;;;1.40;1.17;;;;;;;20.84;34.13;101362.34;5042709;28;20033;-71
2023/03/29 10:20:19;;;;;;;1.33;1.20;;;;;;;20.80;34.21;101359.22;5038774;28;20144;-71
2023/03/29 10:22:57;;;;;;;1.52;1.42;;;;;;;20.77;34.37;101356.09;5042169;28;20041;-71
2023/03/29 10:25:31;;;;;;;2.08;1.35;;;;;;;20.78;34.46;101347.16;5046004;28;20965;-71
2023/03/29 10:28:06;;;;;;;2.53;1.25;;;;;;;20.78;34.13;101355.09;5041136;28;20068;-71
2023/03/29 10:30:36;;;;;;;2.72;1.60;;;;;;;20.75;34.24;101350.97;5043744;28;20038;-72
2023/03/29 10:33:02;;;;;;;1.95;1.58;;;;;;;20.92;34.01;101343.78;5043737;28;20112;-71
2023/03/29 10:35:32;;;;;;;3.58;1.40;;;;;;;21.07;33.93;101339.38;5041508;28;20128;-71
2023/03/29 10:38:02;;;;;;;1.48;1.33;;;;;;;21.09;34.00;101341.84;5040632;28;20037;-71
2023/03/29 10:40:33;;;;;;;2.13;1.65;;;;;;;21.08;33.73;101348.16;5046927;28;20382;-71
2023/03/29 10:43:19;;;;;;;2.70;1.48;;;;;;;21.07;33.90;101342.03;5048559;28;20041;-71
2023/03/29 10:45:52;;;;;;;1.98;1.52;;;;;;;21.03;34.02;101345.22;5054235;28;20049;-71
2023/03/29 10:48:18;;;;;;;2.17;1.40;;;;;;;21.00;34.17;101356.94;5043983;28;20429;-73
2023/03/29 10:50:53;;;;;;;1.98;1.65;;;;;;;20.97;33.89;101351.19;5037707;28;20029;-72
2023/03/29 10:53:25;;;;;;;1.27;1.17;;;;;;;20.94;33.97;101346.25;5043002;28;20056;-73
2023/03/29 10:56:06;;;;;;;1.50;1.40;;;;;;;20.98;34.06;101358.94;5037333;28;20049;-73
2023/03/29 10:58:47;;;;;;;2.03;1.27;;;;;;;20.97;33.97;101354.66;5045883;28;20044;-72
2023/03/29 11:01:29;;;;;;;1.98;1.25;;;;;;;20.93;34.20;101345.41;5042568;28;20117;-72
2023/03/29 11:03:59;;;;;;;1.73;1.48;;;;;;;20.89;34.25;101336.19;5041376;28;20505;-73
2023/03/29 11:06:46;;;;;;;2.25;1.58;;;;;;;20.92;34.13;101346.41;5049648;28;20400;-72
2023/03/29 11:09:26;;;;;;;1.38;1.27;;;;;;;20.90;34.31;101332.53;5056731;28;20040;-71
2023/03/29 11:12:02;;;;;;;1.60;1.42;;;;;;;20.87;34.39;101346.13;5045240;28;20052;-72
2023/03/29 11:15:06;;;;;;;2.05;1.25;;;;;;;20.85;34.39;101334.88;5040215;28;20045;-71
2023/03/29 11:17:53;;;;;;;1.42;1.33;;;;;;;20.87;34.46;101335.53;5039757;28;20304;-71
2023/03/29 11:20:43;;;;;;;1.58;1.25;;;;;;;20.87;34.26;101332.88;5041694;28;21214;-71
2023/03/29 11:24:08;;;;;;;1.95;1.63;;;;;;;20.78;34.45;101321.50;5043042;28;20037;-69
2023/03/29 11:26:41;;;;;;;2.08;1.35;;;;;;;20.82;34.60;101321.97;5033003;28;20052;-71
2023/03/29 11:29:30;;;;;;;3.03;1.73;;;;;;;20.78;34.79;101318.03;5049806;28;20566;-71
2023/03/29 11:32:02;;;;;;;2.60;1.65;;;;;;;20.99;34.27;101315.59;5047001;28;20029;-72
2023/03/29 11:34:34;;;;;;;1.98;1.75;;;;;;;21.36;33.58;101311.38;5037366;28;20033;-72
2023/03/29 11:37:33;;;;;;;1.20;1.10;;;;;;;21.64;33.20;101309.00;5055945;28;21049;-71
2023/03/29 11:40:04;;;;;;;2.87;1.77;;;;;;;21.66;33.11;101320.25;5042561;28;20447;-71
2023/03/29 11:42:33;;;;;;;2.10;1.40;;;;;;;21.62;33.42;101335.69;5043183;28;20475;-72
2023/03/29 11:45:03;;;;;;;2.03;1.50;;;;;;;21.46;33.17;101303.19;5041621;28;20043;-73
2023/03/29 11:47:35;;;;;;;1.63;1.40;;;;;;;21.51;33.34;101327.31;5041249;28;20138;-73
2023/03/29 11:50:17;;;;;;;1.33;1.23;;;;;;;21.49;33.71;101331.97;5041368;28;20029;-72
2023/03/29 11:52:50;;;;;;;1.67;1.52;;;;;;;21.38;33.75;101334.06;5037108;28;20107;-73
2023/03/29 11:55:18;;;;;;;3.30;1.65;;;;;;;21.30;33.70;101312.09;5042304;28;20044;-74